Time;durP1;ratioP1;P1;durP2;ratioP2;P2;SDS_P1;SDS_P2;PMS_P1;PMS_P2;Temp;Humidity;BMP_temperature;BMP_pressure;BME280_temperature;BME280_humidity;BME280_pressure;Samples;Min_cycle;Max_cycle;Signal;HPM_P1;HPM_P2
2023/02/05 00:02:09;;;;;;;5.20;4.53;;;;;;;;;;4998790;28;20225;-70
2023/02/05 00:04:35;;;;;;;6.27;5.10;;;;;;;;;;4998832;28;20654;-70
2023/02/05 00:07:01;;;;;;;5.93;4.70;;;;;;;;;;4984230;28;20197;-70
2023/02/05 00:09:29;;;;;;;5.53;4.77;;;;;;;;;;4982934;28;20192;-70
2023/02/05 00:11:55;;;;;;;5.50;4.60;;;;;;;;;;4999972;28;20177;-70
2023/02/05 00:14:21;;;;;;;6.43;5.03;;;;;;;;;;4999624;28;20466;-69
2023/02/05 00:16:47;;;;;;;7.10;5.50;;;;;;;;;;4983251;28;20197;-70
2023/02/05 00:19:12;;;;;;;12.50;5.20;;;;;;;;;;4997646;28;20924;-70
2023/02/05 00:21:41;;;;;;;6.30;4.63;;;;;;;;;;4984655;28;20424;-69
2023/02/05 00:24:06;;;;;;;6.53;5.00;;;;;;;;;;4999656;28;20185;-70
2023/02/05 00:26:32;;;;;;;5.00;4.50;;;;;;;;;;5000169;28;20479;-69
2023/02/05 00:28:57;;;;;;;4.83;4.40;;;;;;;;;;4998746;28;20243;-69
2023/02/05 00:31:23;;;;;;;5.33;4.83;;;;;;;;;;5000775;28;20192;-69
2023/02/05 00:33:49;;;;;;;6.27;4.80;;;;;;;;;;4983188;28;20284;-69
2023/02/05 00:36:15;;;;;;;7.60;5.20;;;;;;;;;;5000471;28;20824;-69
2023/02/05 00:38:42;;;;;;;6.93;4.87;;;;;;;;;;5000490;28;20435;-70
2023/02/05 00:41:08;;;;;;;5.13;4.63;;;;;;;;;;4995221;28;20181;-69
2023/02/05 00:43:36;;;;;;;5.30;4.70;;;;;;;;;;4999050;28;20413;-69
2023/02/05 00:46:01;;;;;;;5.23;4.70;;;;;;;;;;4997568;28;20174;-69
2023/02/05 00:48:35;;;;;;;5.53;4.97;;;;;;;;;;5000377;28;20550;-69
2023/02/05 00:51:01;;;;;;;6.00;4.60;;;;;;;;;;5000352;28;20659;-69
2023/02/05 00:53:27;;;;;;;5.77;4.83;;;;;;;;;;4998760;28;20460;-69
2023/02/05 00:55:52;;;;;;;7.77;5.60;;;;;;;;;;4983622;28;20185;-69
2023/02/05 00:58:18;;;;;;;7.17;4.67;;;;;;;;;;5005519;28;20213;-69
2023/02/05 01:00:48;;;;;;;9.60;4.80;;;;;;;;;;4989873;28;20263;-69
2023/02/05 01:03:13;;;;;;;5.40;4.90;;;;;;;;;;5009480;28;20192;-69
2023/02/05 01:05:39;;;;;;;4.90;4.00;;;;;;;;;;5010230;28;20416;-69
2023/02/05 01:08:12;;;;;;;6.63;5.30;;;;;;;;;;4991593;28;20658;-69
2023/02/05 01:10:37;;;;;;;4.40;4.00;;;;;;;;;;5009628;28;20184;-69
2023/02/05 01:13:03;;;;;;;7.13;5.17;;;;;;;;;;5009810;28;20451;-69
2023/02/05 01:15:29;;;;;;;6.57;5.57;;;;;;;;;;4991739;28;20169;-69
2023/02/05 01:17:54;;;;;;;7.20;5.07;;;;;;;;;;5008029;28;22233;-69
2023/02/05 01:20:20;;;;;;;7.27;4.93;;;;;;;;;;5009689;28;20655;-69
2023/02/05 01:22:48;;;;;;;5.07;4.40;;;;;;;;;;4991686;28;20177;-69
2023/02/05 01:25:14;;;;;;;7.60;5.40;;;;;;;;;;5008652;28;20181;-69
2023/02/05 01:27:39;;;;;;;6.33;5.37;;;;;;;;;;4991423;28;20808;-69
2023/02/05 01:30:05;;;;;;;6.03;5.03;;;;;;;;;;5011196;28;20504;-69
2023/02/05 01:32:34;;;;;;;6.27;5.63;;;;;;;;;;4991602;28;20567;-69
2023/02/05 01:34:59;;;;;;;5.40;4.90;;;;;;;;;;5009602;28;20938;-69
2023/02/05 01:37:25;;;;;;;5.33;4.80;;;;;;;;;;4990700;28;20432;-69
2023/02/05 01:39:50;;;;;;;5.77;5.13;;;;;;;;;;5009897;28;20196;-69
2023/02/05 01:42:17;;;;;;;4.87;4.30;;;;;;;;;;5009575;28;20552;-69
2023/02/05 01:44:43;;;;;;;7.03;5.23;;;;;;;;;;4991816;28;20264;-69
2023/02/05 01:47:08;;;;;;;5.27;4.60;;;;;;;;;;5010621;28;20862;-69
2023/02/05 01:49:41;;;;;;;7.70;5.50;;;;;;;;;;4990615;28;20185;-69
2023/02/05 01:52:12;;;;;;;6.50;5.67;;;;;;;;;;5008177;28;20169;-69
2023/02/05 01:54:40;;;;;;;7.73;5.60;;;;;;;;;;5009310;28;20419;-69
2023/02/05 01:57:07;;;;;;;6.30;5.17;;;;;;;;;;5006904;28;20494;-69
2023/02/05 01:59:34;;;;;;;6.83;5.37;;;;;;;;;;4991349;28;20482;-69
2023/02/05 02:02:00;;;;;;;6.40;5.80;;;;;;;;;;5008903;28;20450;-69
2023/02/05 02:04:45;;;;;;;7.90;5.13;;;;;;;;;;4992164;28;20443;-69
2023/02/05 02:07:12;;;;;;;7.00;5.70;;;;;;;;;;4990431;28;20623;-69
2023/02/05 02:09:39;;;;;;;7.00;5.37;;;;;;;;;;5006307;28;20756;-69
2023/02/05 02:12:05;;;;;;;8.93;5.20;;;;;;;;;;5011631;28;20416;-69
2023/02/05 02:14:32;;;;;;;6.70;5.40;;;;;;;;;;5012381;28;20546;-69
2023/02/05 02:16:59;;;;;;;8.47;6.10;;;;;;;;;;5011647;28;20486;-69
2023/02/05 02:19:39;;;;;;;6.13;5.53;;;;;;;;;;5012996;28;20448;-69
2023/02/05 02:22:08;;;;;;;5.57;5.00;;;;;;;;;;5012211;28;20450;-68
2023/02/05 02:24:47;;;;;;;6.40;5.60;;;;;;;;;;5013234;28;20419;-69
2023/02/05 02:27:16;;;;;;;6.53;5.50;;;;;;;;;;4993910;28;20451;-68
2023/02/05 02:29:53;;;;;;;7.23;5.30;;;;;;;;;;5012581;28;20913;-68
2023/02/05 02:32:31;;;;;;;5.50;5.00;;;;;;;;;;5012031;28;20995;-69
2023/02/05 02:35:22;;;;;;;10.43;5.47;;;;;;;;;;5012357;28;20412;-69
2023/02/05 02:37:57;;;;;;;5.80;5.30;;;;;;;;;;5006348;28;20444;-69
2023/02/05 02:40:36;;;;;;;6.60;5.30;;;;;;;;;;4993388;28;20485;-69
2023/02/05 02:43:36;;;;;;;6.23;5.63;;;;;;;;;;5012013;28;20423;-70
2023/02/05 02:46:04;;;;;;;6.50;5.90;;;;;;;;;;4913642;29;20463;-70
2023/02/05 02:48:30;;;;;;;6.13;5.40;;;;;;;;;;4989888;28;20958;-70
2023/02/05 02:50:56;;;;;;;7.53;6.00;;;;;;;;;;4994451;28;20788;-70
2023/02/05 02:53:27;;;;;;;8.03;6.20;;;;;;;;;;4994609;28;20466;-70
2023/02/05 02:55:54;;;;;;;5.47;4.93;;;;;;;;;;5009274;28;20412;-70
2023/02/05 02:58:25;;;;;;;6.23;5.63;;;;;;;;;;5012035;28;20475;-70
2023/02/05 03:00:51;;;;;;;8.40;6.20;;;;;;;;;;5011620;28;20405;-70
2023/02/05 03:03:19;;;;;;;6.07;5.47;;;;;;;;;;4994229;28;20416;-70
2023/02/05 03:05:47;;;;;;;6.67;5.97;;;;;;;;;;5009488;28;20419;-70
2023/02/05 03:08:17;;;;;;;6.37;5.73;;;;;;;;;;4993277;28;20447;-70
2023/02/05 03:10:45;;;;;;;6.87;5.80;;;;;;;;;;5011812;28;20415;-70
2023/02/05 03:13:11;;;;;;;5.87;4.87;;;;;;;;;;5011371;28;20459;-70
2023/02/05 03:15:37;;;;;;;11.77;6.00;;;;;;;;;;4995031;28;20483;-70
2023/02/05 03:18:03;;;;;;;8.03;6.50;;;;;;;;;;5010664;28;20197;-70
2023/02/05 03:20:30;;;;;;;6.40;5.30;;;;;;;;;;4993344;28;20991;-70
2023/02/05 03:22:56;;;;;;;6.30;5.70;;;;;;;;;;5011637;28;20264;-70
2023/02/05 03:25:22;;;;;;;8.07;6.87;;;;;;;;;;5011932;28;20511;-70
2023/02/05 03:27:50;;;;;;;8.30;6.37;;;;;;;;;;5010557;28;20203;-70
2023/02/05 03:30:16;;;;;;;7.10;5.70;;;;;;;;;;5010984;28;20467;-70
2023/02/05 03:32:55;;;;;;;8.53;6.20;;;;;;;;;;5012088;28;20487;-68
2023/02/05 03:35:30;;;;;;;8.27;6.10;;;;;;;;;;5010195;28;20276;-70
2023/02/05 03:38:10;;;;;;;7.40;6.30;;;;;;;;;;5010761;28;21146;-70
2023/02/05 03:40:54;;;;;;;7.07;6.13;;;;;;;;;;5008037;28;20407;-69
2023/02/05 03:43:24;;;;;;;7.60;6.10;;;;;;;;;;5011474;28;20467;-70
2023/02/05 03:46:03;;;;;;;8.50;6.93;;;;;;;;;;4994549;28;20431;-70
2023/02/05 03:48:31;;;;;;;9.33;7.17;;;;;;;;;;5010706;28;20523;-70
2023/02/05 03:51:09;;;;;;;9.37;6.83;;;;;;;;;;5011192;28;20507;-70
2023/02/05 03:53:42;;;;;;;8.33;6.80;;;;;;;;;;4992527;28;20974;-68
2023/02/05 03:56:12;;;;;;;9.33;7.60;;;;;;;;;;5012004;28;20400;-68
2023/02/05 03:58:42;;;;;;;12.70;7.07;;;;;;;;;;5010975;28;20535;-68
2023/02/05 04:01:09;;;;;;;8.30;7.03;;;;;;;;;;5011392;28;20408;-70
2023/02/05 04:03:34;;;;;;;11.10;7.03;;;;;;;;;;5011641;28;20447;-71
2023/02/05 04:06:00;;;;;;;12.17;7.77;;;;;;;;;;5011072;28;20466;-70
2023/02/05 04:08:25;;;;;;;9.43;6.60;;;;;;;;;;5010619;28;20219;-69
2023/02/05 04:10:51;;;;;;;11.17;7.20;;;;;;;;;;5010774;28;20503;-68
2023/02/05 04:13:16;;;;;;;9.90;7.00;;;;;;;;;;5011682;28;20247;-68
2023/02/05 04:15:41;;;;;;;9.00;7.07;;;;;;;;;;5010342;28;20254;-69
2023/02/05 04:18:07;;;;;;;9.13;8.00;;;;;;;;;;5011207;28;20200;-69
2023/02/05 04:20:32;;;;;;;9.60;7.00;;;;;;;;;;4993973;28;20646;-69
2023/02/05 04:22:57;;;;;;;9.50;7.00;;;;;;;;;;5009947;28;20215;-69
2023/02/05 04:25:23;;;;;;;8.20;6.50;;;;;;;;;;5010175;28;20688;-68
2023/02/05 04:27:48;;;;;;;9.70;7.57;;;;;;;;;;5009228;28;20284;-68
2023/02/05 04:30:13;;;;;;;11.73;7.47;;;;;;;;;;5011403;28;20184;-68
2023/02/05 04:32:40;;;;;;;10.27;7.10;;;;;;;;;;5010419;28;20204;-68
2023/02/05 04:35:05;;;;;;;13.13;7.33;;;;;;;;;;5011499;28;20697;-68
2023/02/05 04:37:30;;;;;;;11.20;7.23;;;;;;;;;;5007403;28;20550;-69
2023/02/05 04:39:56;;;;;;;8.63;6.80;;;;;;;;;;5010581;28;20223;-69
2023/02/05 04:42:21;;;;;;;10.63;7.50;;;;;;;;;;5010744;28;20212;-69
2023/02/05 04:44:47;;;;;;;10.50;7.03;;;;;;;;;;5008592;28;20174;-69
2023/02/05 04:47:12;;;;;;;9.50;7.40;;;;;;;;;;5010839;28;20661;-69
2023/02/05 04:49:39;;;;;;;9.37;7.50;;;;;;;;;;4992567;28;20177;-69
2023/02/05 04:52:05;;;;;;;9.60;7.53;;;;;;;;;;4992866;28;20787;-69
2023/02/05 04:54:34;;;;;;;11.20;8.00;;;;;;;;;;5010711;28;20467;-69
2023/02/05 04:57:00;;;;;;;9.93;7.13;;;;;;;;;;4992395;28;20677;-69
2023/02/05 04:59:25;;;;;;;9.17;7.43;;;;;;;;;;5010637;28;20418;-69
2023/02/05 05:01:50;;;;;;;10.20;7.30;;;;;;;;;;4992766;28;20172;-69
2023/02/05 05:04:25;;;;;;;11.03;7.40;;;;;;;;;;5010583;28;20183;-69
2023/02/05 05:06:50;;;;;;;10.63;8.10;;;;;;;;;;5010113;28;20211;-69
2023/02/05 05:09:22;;;;;;;12.67;8.10;;;;;;;;;;5009979;28;20415;-69
2023/02/05 05:11:48;;;;;;;13.90;7.80;;;;;;;;;;4991673;28;20268;-69
2023/02/05 05:14:13;;;;;;;15.00;9.50;;;;;;;;;;4999892;23;21176;-75
2023/02/05 05:16:40;;;;;;;9.13;8.23;;;;;;;;;;5009232;28;20268;-75
2023/02/05 05:19:06;;;;;;;13.13;8.50;;;;;;;;;;5006770;28;20173;-75
2023/02/05 05:21:34;;;;;;;12.37;8.17;;;;;;;;;;5024641;28;20482;-75
2023/02/05 05:23:59;;;;;;;17.27;8.90;;;;;;;;;;5009414;28;20233;-75
2023/02/05 05:26:27;;;;;;;13.27;8.73;;;;;;;;;;5009749;28;20439;-75
2023/02/05 05:28:55;;;;;;;10.10;8.10;;;;;;;;;;5008715;28;20187;-75
2023/02/05 05:31:23;;;;;;;12.93;9.40;;;;;;;;;;5010183;28;20921;-75
2023/02/05 05:33:49;;;;;;;14.70;10.03;;;;;;;;;;5009240;28;20566;-75
2023/02/05 05:36:15;;;;;;;12.13;8.80;;;;;;;;;;5008891;28;20507;-75
2023/02/05 05:38:40;;;;;;;10.50;7.97;;;;;;;;;;5009219;28;20177;-75
2023/02/05 05:43:56;;;;;;;14.57;9.03;;;;;;;;;;5009375;28;20216;-75
2023/02/05 05:46:24;;;;;;;12.97;9.77;;;;;;;;;;5012308;28;21316;-75
2023/02/05 05:48:56;;;;;;;14.23;9.70;;;;;;;;;;5013271;28;20423;-75
2023/02/05 05:51:22;;;;;;;16.00;9.70;;;;;;;;;;5013259;28;20415;-75
2023/02/05 05:53:49;;;;;;;17.40;9.90;;;;;;;;;;5012383;28;20481;-75
2023/02/05 05:56:15;;;;;;;16.43;10.50;;;;;;;;;;5013268;28;20415;-75
2023/02/05 05:58:41;;;;;;;18.27;11.00;;;;;;;;;;5011904;28;20432;-75
2023/02/05 06:01:07;;;;;;;12.60;10.30;;;;;;;;;;5013596;28;20242;-75
2023/02/05 06:03:32;;;;;;;19.80;12.63;;;;;;;;;;5012047;28;20590;-75
2023/02/05 06:06:04;;;;;;;13.33;10.37;;;;;;;;;;5012122;28;20209;-75
2023/02/05 06:08:32;;;;;;;14.23;9.90;;;;;;;;;;5011534;28;20181;-75
2023/02/05 06:10:57;;;;;;;14.30;10.00;;;;;;;;;;5011134;28;20416;-75
2023/02/05 06:13:23;;;;;;;15.33;10.30;;;;;;;;;;5013334;28;20458;-75
2023/02/05 06:15:51;;;;;;;11.10;9.67;;;;;;;;;;5032955;28;20188;-75
2023/02/05 06:18:17;;;;;;;12.87;9.43;;;;;;;;;;5031989;28;20696;-75
2023/02/05 06:20:42;;;;;;;17.23;11.20;;;;;;;;;;5031584;28;20447;-75
2023/02/05 06:23:08;;;;;;;11.77;9.90;;;;;;;;;;5032219;28;20705;-75
2023/02/05 06:25:33;;;;;;;15.93;10.53;;;;;;;;;;5032769;28;20207;-75
2023/02/05 06:28:01;;;;;;;15.80;10.63;;;;;;;;;;5029045;28;20181;-75
2023/02/05 06:30:28;;;;;;;16.13;10.73;;;;;;;;;;5032557;28;20176;-75
2023/02/05 06:32:54;;;;;;;13.83;10.53;;;;;;;;;;5031275;28;20489;-76
2023/02/05 06:35:19;;;;;;;19.33;11.27;;;;;;;;;;5032839;28;20824;-75
2023/02/05 06:37:44;;;;;;;19.40;11.80;;;;;;;;;;5032715;28;20176;-75
2023/02/05 06:40:10;;;;;;;23.50;11.43;;;;;;;;;;5031984;28;20184;-75
2023/02/05 06:42:36;;;;;;;18.40;12.73;;;;;;;;;;5032079;28;20184;-75
2023/02/05 06:45:03;;;;;;;19.13;12.57;;;;;;;;;;5032371;28;20298;-75
2023/02/05 06:47:29;;;;;;;18.43;11.20;;;;;;;;;;5031292;28;20206;-75
2023/02/05 06:49:57;;;;;;;16.00;11.90;;;;;;;;;;5031927;28;20446;-75
2023/02/05 06:52:22;;;;;;;14.80;10.90;;;;;;;;;;5031477;28;20737;-73
2023/02/05 06:54:47;;;;;;;17.43;10.83;;;;;;;;;;5032267;28;20542;-72
2023/02/05 06:57:12;;;;;;;18.10;9.27;;;;;;;;;;5029431;28;20195;-73
2023/02/05 06:59:38;;;;;;;12.17;8.93;;;;;;;;;;5027487;28;20212;-73
2023/02/05 07:02:03;;;;;;;14.80;10.00;;;;;;;;;;5031028;28;20520;-73
2023/02/05 07:04:32;;;;;;;20.60;6.93;;;;;;;;;;5013344;28;20351;-72
2023/02/05 07:06:57;;;;;;;14.60;5.37;;;;;;;;;;5029744;28;20633;-72
2023/02/05 07:09:22;;;;;;;15.20;4.60;;;;;;;;;;5030474;28;20461;-72
2023/02/05 07:11:48;;;;;;;12.03;2.97;;;;;;;;;;5029950;28;20179;-72
2023/02/05 07:14:13;;;;;;;14.47;3.97;;;;;;;;;;5029850;28;20208;-73
2023/02/05 07:16:38;;;;;;;13.93;2.67;;;;;;;;;;5029849;28;20739;-73
2023/02/05 07:19:03;;;;;;;16.10;2.67;;;;;;;;;;5029429;28;20188;-73
2023/02/05 07:21:29;;;;;;;15.93;4.03;;;;;;;;;;5030341;28;20665;-73
2023/02/05 07:23:54;;;;;;;17.60;3.20;;;;;;;;;;5030245;28;20660;-73
2023/02/05 07:26:19;;;;;;;16.13;3.37;;;;;;;;;;5029389;28;20180;-73
2023/02/05 07:28:45;;;;;;;12.90;3.43;;;;;;;;;;5028499;28;20190;-73
2023/02/05 07:31:13;;;;;;;14.90;2.70;;;;;;;;;;5029022;28;20180;-73
2023/02/05 07:33:39;;;;;;;19.23;3.47;;;;;;;;;;5028523;28;20208;-73
2023/02/05 07:36:05;;;;;;;12.53;3.10;;;;;;;;;;5029612;28;20765;-73
2023/02/05 07:38:30;;;;;;;10.00;2.90;;;;;;;;;;5028903;28;20633;-73
2023/02/05 07:40:56;;;;;;;19.70;3.87;;;;;;;;;;5029806;28;20414;-73
2023/02/05 07:43:21;;;;;;;19.60;3.20;;;;;;;;;;5029888;28;20226;-73
2023/02/05 07:45:46;;;;;;;16.23;3.90;;;;;;;;;;5026867;28;20250;-73
2023/02/05 07:48:12;;;;;;;23.63;3.80;;;;;;;;;;5028225;28;20196;-73
2023/02/05 07:50:41;;;;;;;12.53;2.53;;;;;;;;;;5029710;28;20172;-73
2023/02/05 07:53:06;;;;;;;10.63;2.83;;;;;;;;;;5029236;28;20199;-73
2023/02/05 07:55:33;;;;;;;10.83;3.40;;;;;;;;;;5030567;28;20435;-73
2023/02/05 07:57:58;;;;;;;13.23;3.77;;;;;;;;;;5030044;28;20187;-73
2023/02/05 08:00:23;;;;;;;14.63;3.70;;;;;;;;;;5029184;28;20419;-73
2023/02/05 08:02:49;;;;;;;16.83;4.87;;;;;;;;;;5029477;28;20180;-73
2023/02/05 08:05:14;;;;;;;10.10;4.23;;;;;;;;;;5030847;28;20196;-73
2023/02/05 08:07:39;;;;;;;13.30;5.40;;;;;;;;;;5028124;28;20195;-73
2023/02/05 08:10:05;;;;;;;11.30;5.50;;;;;;;;;;5030522;28;20204;-73
2023/02/05 08:12:30;;;;;;;9.20;5.60;;;;;;;;;;5030078;28;20176;-73
2023/02/05 08:14:55;;;;;;;8.77;6.30;;;;;;;;;;5029602;28;20236;-73
2023/02/05 08:17:21;;;;;;;13.07;6.80;;;;;;;;;;5030282;28;20175;-73
2023/02/05 08:19:46;;;;;;;13.90;7.60;;;;;;;;;;5030193;28;20634;-73
2023/02/05 08:22:11;;;;;;;9.90;6.93;;;;;;;;;;5030430;28;20172;-73
2023/02/05 08:24:37;;;;;;;12.40;8.10;;;;;;;;;;5030291;28;20200;-72
2023/02/05 08:27:02;;;;;;;13.73;8.13;;;;;;;;;;5030176;28;20184;-73
2023/02/05 08:29:27;;;;;;;10.90;8.20;;;;;;;;;;5028540;28;20552;-73
2023/02/05 08:31:53;;;;;;;12.00;9.40;;;;;;;;;;5029402;28;20210;-73
2023/02/05 08:34:18;;;;;;;14.60;9.50;;;;;;;;;;5029862;28;20212;-73
2023/02/05 08:36:43;;;;;;;9.67;8.67;;;;;;;;;;5012377;28;20211;-73
2023/02/05 08:39:08;;;;;;;14.30;9.47;;;;;;;;;;5029471;28;20537;-73
2023/02/05 08:41:35;;;;;;;12.40;9.73;;;;;;;;;;5030200;28;20271;-73
2023/02/05 08:44:00;;;;;;;13.77;9.20;;;;;;;;;;5029542;28;20278;-73
2023/02/05 08:46:26;;;;;;;11.17;8.50;;;;;;;;;;5029954;28;20836;-73
2023/02/05 08:48:51;;;;;;;14.50;9.33;;;;;;;;;;5029454;28;20206;-73
2023/02/05 08:51:18;;;;;;;10.47;8.87;;;;;;;;;;5030251;28;20649;-73
2023/02/05 08:53:43;;;;;;;11.23;9.20;;;;;;;;;;5029518;28;20289;-73
2023/02/05 08:56:09;;;;;;;11.87;9.27;;;;;;;;;;5029904;28;20511;-73
2023/02/05 08:58:35;;;;;;;10.87;9.63;;;;;;;;;;5030809;28;20282;-73
2023/02/05 09:01:01;;;;;;;11.37;9.40;;;;;;;;;;5031170;28;20175;-74
2023/02/05 09:03:26;;;;;;;17.03;9.83;;;;;;;;;;5030119;28;20180;-74
2023/02/05 09:05:52;;;;;;;10.63;9.07;;;;;;;;;;5011923;28;20421;-73
2023/02/05 09:08:17;;;;;;;10.13;8.70;;;;;;;;;;5029444;28;20183;-73
2023/02/05 09:10:43;;;;;;;9.37;8.37;;;;;;;;;;5029201;28;20206;-74
2023/02/05 09:13:09;;;;;;;8.83;7.47;;;;;;;;;;5029198;28;20639;-73
2023/02/05 09:15:34;;;;;;;11.50;7.50;;;;;;;;;;5029502;28;20441;-74
2023/02/05 09:18:00;;;;;;;10.23;7.10;;;;;;;;;;5029382;28;20544;-74
2023/02/05 09:20:25;;;;;;;10.00;7.80;;;;;;;;;;5030874;28;20543;-73
2023/02/05 09:22:52;;;;;;;8.80;6.70;;;;;;;;;;5033904;28;20184;-73
2023/02/05 09:25:18;;;;;;;10.50;6.70;;;;;;;;;;5031811;28;20206;-73
2023/02/05 09:27:43;;;;;;;12.93;6.20;;;;;;;;;;5015361;28;20430;-73
2023/02/05 09:30:08;;;;;;;11.00;5.77;;;;;;;;;;5033238;28;20177;-73
2023/02/05 09:32:34;;;;;;;7.93;4.30;;;;;;;;;;5029642;28;20684;-74
2023/02/05 09:34:59;;;;;;;9.73;3.30;;;;;;;;;;5033125;28;20196;-73
2023/02/05 09:37:24;;;;;;;8.83;2.50;;;;;;;;;;5033098;28;20203;-74
2023/02/05 09:39:50;;;;;;;10.93;2.40;;;;;;;;;;5030743;28;20180;-73
2023/02/05 09:42:18;;;;;;;6.00;3.80;;;;;;;;;;5032709;28;20188;-73
2023/02/05 09:44:55;;;;;;;9.23;1.60;;;;;;;;;;5031661;28;20196;-73
2023/02/05 09:47:40;;;;;;;14.73;2.60;;;;;;;;;;5032908;28;20445;-73
2023/02/05 09:50:14;;;;;;;10.80;2.03;;;;;;;;;;5033358;28;20426;-74
2023/02/05 09:52:50;;;;;;;13.23;2.80;;;;;;;;;;5032204;28;20425;-73
2023/02/05 09:55:15;;;;;;;7.13;1.40;;;;;;;;;;5014405;28;20447;-74
2023/02/05 09:57:40;;;;;;;9.90;2.07;;;;;;;;;;5030432;28;20812;-73
2023/02/05 10:00:26;;;;;;;9.70;2.00;;;;;;;;;;5031467;28;20557;-73
2023/02/05 10:03:06;;;;;;;16.30;2.10;;;;;;;;;;5004467;28;20560;-73
2023/02/05 10:05:35;;;;;;;6.57;2.00;;;;;;;;;;5032395;28;20434;-73
2023/02/05 10:08:10;;;;;;;17.17;2.20;;;;;;;;;;5031276;28;20451;-73
2023/02/05 10:10:42;;;;;;;11.17;2.17;;;;;;;;;;5030654;28;20461;-73
2023/02/05 10:13:20;;;;;;;12.87;2.00;;;;;;;;;;5032149;28;20544;-73
2023/02/05 10:15:48;;;;;;;15.57;2.43;;;;;;;;;;5032816;28;20406;-73
2023/02/05 10:18:32;;;;;;;12.60;2.40;;;;;;;;;;5030593;28;20412;-73
2023/02/05 10:21:06;;;;;;;14.00;2.47;;;;;;;;;;5032538;28;20482;-73
2023/02/05 10:23:43;;;;;;;11.73;2.53;;;;;;;;;;5032864;28;21019;-73
2023/02/05 10:26:10;;;;;;;14.70;2.90;;;;;;;;;;5030411;28;20506;-73
2023/02/05 10:28:54;;;;;;;14.93;2.70;;;;;;;;;;5031800;28;20415;-73
2023/02/05 10:31:32;;;;;;;18.00;2.80;;;;;;;;;;5031844;28;20411;-75
2023/02/05 10:34:03;;;;;;;13.90;3.10;;;;;;;;;;5031590;28;20463;-73
2023/02/05 10:36:28;;;;;;;13.03;3.00;;;;;;;;;;5032211;28;20414;-73
2023/02/05 10:38:55;;;;;;;16.90;3.13;;;;;;;;;;5031666;28;20411;-73
2023/02/05 10:41:59;;;;;;;12.83;2.83;;;;;;;;;;5031300;28;20187;-74
2023/02/05 10:44:53;;;;;;;14.53;2.90;;;;;;;;;;4993028;28;20847;-73
2023/02/05 10:47:23;;;;;;;12.20;3.57;;;;;;;;;;4996917;28;20428;-73
2023/02/05 10:49:57;;;;;;;16.07;3.30;;;;;;;;;;5026377;28;20783;-74
2023/02/05 10:52:22;;;;;;;12.80;2.50;;;;;;;;;;5029560;28;20423;-73
2023/02/05 10:54:48;;;;;;;12.10;2.83;;;;;;;;;;5032355;28;20474;-73
2023/02/05 10:57:14;;;;;;;18.30;4.00;;;;;;;;;;5031116;28;20176;-73
2023/02/05 10:59:59;;;;;;;21.97;4.93;;;;;;;;;;5031203;28;20238;-73
2023/02/05 11:02:30;;;;;;;15.03;3.23;;;;;;;;;;5020614;28;20446;-73
2023/02/05 11:04:58;;;;;;;19.23;4.50;;;;;;;;;;5030076;28;20493;-73
2023/02/05 11:07:37;;;;;;;18.00;3.30;;;;;;;;;;5031216;28;20435;-73
2023/02/05 11:10:16;;;;;;;23.30;4.30;;;;;;;;;;5032021;28;20415;-73
2023/02/05 11:12:43;;;;;;;25.40;3.93;;;;;;;;;;5031225;28;20427;-73
2023/02/05 11:15:17;;;;;;;20.10;4.90;;;;;;;;;;5031377;28;20465;-73
2023/02/05 11:17:42;;;;;;;16.87;3.73;;;;;;;;;;5030381;28;20831;-73
2023/02/05 11:20:10;;;;;;;24.63;4.53;;;;;;;;;;5031579;28;20494;-73
2023/02/05 11:22:38;;;;;;;23.17;4.40;;;;;;;;;;5031472;28;20318;-73
2023/02/05 11:25:21;;;;;;;22.50;4.80;;;;;;;;;;5013022;28;20797;-73
2023/02/05 11:27:57;;;;;;;20.67;4.17;;;;;;;;;;5029974;28;20419;-74
2023/02/05 11:30:22;;;;;;;27.77;5.43;;;;;;;;;;5030848;28;20407;-73
2023/02/05 11:32:48;;;;;;;26.53;5.13;;;;;;;;;;5027691;28;20480;-73
2023/02/05 11:35:21;;;;;;;22.83;4.50;;;;;;;;;;5031559;28;20188;-73
2023/02/05 11:37:47;;;;;;;24.80;6.43;;;;;;;;;;5030112;28;20188;-73
2023/02/05 11:40:20;;;;;;;22.07;4.60;;;;;;;;;;5031132;28;20494;-73
2023/02/05 11:42:47;;;;;;;26.67;4.50;;;;;;;;;;5030348;28;20440;-74
2023/02/05 11:45:15;;;;;;;25.53;4.93;;;;;;;;;;5030241;28;20496;-73
2023/02/05 11:47:40;;;;;;;30.83;6.10;;;;;;;;;;5028772;28;20472;-73
2023/02/05 11:50:17;;;;;;;27.80;6.20;;;;;;;;;;5031430;28;20836;-74
2023/02/05 11:52:42;;;;;;;31.20;5.80;;;;;;;;;;5029983;28;20180;-76
2023/02/05 11:55:22;;;;;;;31.00;5.60;;;;;;;;;;5031180;28;20804;-75
2023/02/05 11:57:56;;;;;;;17.00;4.70;;;;;;;;;;5028952;28;20184;-73
2023/02/05 12:00:21;;;;;;;24.50;5.10;;;;;;;;;;5028979;28;20447;-73
2023/02/05 12:02:52;;;;;;;27.83;6.07;;;;;;;;;;5029518;28;20410;-73
2023/02/05 12:05:19;;;;;;;29.13;5.47;;;;;;;;;;5010606;28;20192;-73
2023/02/05 12:07:51;;;;;;;25.40;5.50;;;;;;;;;;5029384;28;20893;-73
2023/02/05 12:10:37;;;;;;;24.27;4.97;;;;;;;;;;5030204;28;20429;-73
2023/02/05 12:13:31;;;;;;;19.27;4.77;;;;;;;;;;5029932;28;20562;-73
2023/02/05 12:16:07;;;;;;;23.73;5.57;;;;;;;;;;5016816;28;20493;-73
2023/02/05 12:18:38;;;;;;;25.30;4.50;;;;;;;;;;5030256;28;20419;-74
2023/02/05 12:21:19;;;;;;;35.70;5.90;;;;;;;;;;5029803;28;20407;-73
2023/02/05 12:24:03;;;;;;;26.03;5.50;;;;;;;;;;5030226;28;20848;-73
2023/02/05 12:26:37;;;;;;;22.93;4.77;;;;;;;;;;5030020;28;20873;-73
2023/02/05 12:29:02;;;;;;;35.50;6.00;;;;;;;;;;5028771;28;20453;-73
2023/02/05 12:31:28;;;;;;;26.20;4.37;;;;;;;;;;5029262;28;20433;-73
2023/02/05 12:34:12;;;;;;;23.60;5.93;;;;;;;;;;5029411;28;20599;-73
2023/02/05 12:36:57;;;;;;;29.97;5.27;;;;;;;;;;5029582;28;20267;-73
2023/02/05 12:39:29;;;;;;;27.73;5.13;;;;;;;;;;5030307;28;20429;-73
2023/02/05 12:42:05;;;;;;;21.53;5.57;;;;;;;;;;5032029;28;20406;-74
2023/02/05 12:44:40;;;;;;;18.63;5.03;;;;;;;;;;5031274;28;20442;-74
2023/02/05 12:47:31;;;;;;;37.47;6.27;;;;;;;;;;5030705;28;20419;-74
2023/02/05 12:50:02;;;;;;;21.17;5.33;;;;;;;;;;5026912;28;20513;-74
2023/02/05 12:52:46;;;;;;;33.60;6.80;;;;;;;;;;5012704;28;20986;-74
2023/02/05 12:55:30;;;;;;;19.10;4.90;;;;;;;;;;5029672;28;20439;-74
2023/02/05 12:57:57;;;;;;;25.87;5.60;;;;;;;;;;5011845;28;20941;-73
2023/02/05 13:00:25;;;;;;;26.07;5.90;;;;;;;;;;5029571;28;20514;-73
2023/02/05 13:03:04;;;;;;;26.63;6.00;;;;;;;;;;5030048;28;20423;-73
2023/02/05 13:05:47;;;;;;;30.83;4.93;;;;;;;;;;5029951;28;20442;-73
2023/02/05 13:08:16;;;;;;;21.50;4.90;;;;;;;;;;5029623;28;20469;-73
2023/02/05 13:10:49;;;;;;;26.70;4.87;;;;;;;;;;5029278;28;20496;-73
2023/02/05 13:13:16;;;;;;;20.60;5.30;;;;;;;;;;5028927;28;20581;-73
2023/02/05 13:15:43;;;;;;;25.53;5.67;;;;;;;;;;5030017;28;20480;-73
2023/02/05 13:18:14;;;;;;;22.57;5.07;;;;;;;;;;5028248;28;20414;-73
2023/02/05 13:28:54;;;;;;;19.83;4.17;;;;;;;;;;5029511;28;20895;-74
2023/02/05 13:31:19;;;;;;;28.03;5.23;;;;;;;;;;5028157;28;20426;-74
2023/02/05 13:33:45;;;;;;;30.87;4.60;;;;;;;;;;5029022;28;20463;-74
2023/02/05 13:36:22;;;;;;;16.53;4.23;;;;;;;;;;5029189;28;20180;-74
2023/02/05 13:38:50;;;;;;;17.17;4.80;;;;;;;;;;5027276;28;20318;-74
2023/02/05 13:41:23;;;;;;;32.60;5.47;;;;;;;;;;5029520;28;20465;-74
2023/02/05 13:43:51;;;;;;;22.13;5.37;;;;;;;;;;5029596;28;20517;-74
2023/02/05 13:46:32;;;;;;;21.53;4.90;;;;;;;;;;5029635;28;20438;-74
2023/02/05 13:49:04;;;;;;;23.83;5.20;;;;;;;;;;5029112;28;20921;-73
2023/02/05 13:51:44;;;;;;;23.33;5.03;;;;;;;;;;5028957;28;20412;-74
2023/02/05 13:54:32;;;;;;;22.73;4.63;;;;;;;;;;5027758;28;20466;-73
2023/02/05 13:56:57;;;;;;;21.10;4.83;;;;;;;;;;5028570;28;20410;-73
2023/02/05 13:59:37;;;;;;;22.80;5.13;;;;;;;;;;5028730;28;20407;-74
2023/02/05 14:02:14;;;;;;;18.77;4.60;;;;;;;;;;5011177;28;20180;-74
2023/02/05 14:04:41;;;;;;;20.00;4.30;;;;;;;;;;5028861;28;20473;-74
2023/02/05 14:07:07;;;;;;;22.53;4.60;;;;;;;;;;5029845;28;20872;-74
2023/02/05 14:09:35;;;;;;;17.10;5.03;;;;;;;;;;5033072;28;20413;-73
2023/02/05 14:12:03;;;;;;;21.23;5.23;;;;;;;;;;5031769;28;20407;-74
2023/02/05 14:14:33;;;;;;;26.03;5.70;;;;;;;;;;5032668;28;20546;-73
2023/02/05 14:17:00;;;;;;;21.57;5.30;;;;;;;;;;5029079;28;20430;-74
2023/02/05 14:19:47;;;;;;;29.47;6.33;;;;;;;;;;5014556;28;20838;-73
2023/02/05 14:22:32;;;;;;;31.07;6.23;;;;;;;;;;5028308;28;20450;-73
2023/02/05 14:24:57;;;;;;;21.40;4.80;;;;;;;;;;5032832;28;20434;-73
2023/02/05 14:27:25;;;;;;;25.33;5.90;;;;;;;;;;5032866;28;20411;-73
2023/02/05 14:29:51;;;;;;;27.97;6.17;;;;;;;;;;5029024;28;20200;-74
2023/02/05 14:32:28;;;;;;;23.97;5.63;;;;;;;;;;5032388;28;20947;-74
2023/02/05 14:34:58;;;;;;;18.93;5.27;;;;;;;;;;5034788;28;20219;-74
2023/02/05 14:37:29;;;;;;;27.77;5.90;;;;;;;;;;5033262;28;20446;-74
2023/02/05 14:39:55;;;;;;;31.97;6.80;;;;;;;;;;5033029;28;20486;-74
2023/02/05 14:42:20;;;;;;;22.33;5.50;;;;;;;;;;5032497;28;20511;-74
2023/02/05 14:44:51;;;;;;;23.07;4.83;;;;;;;;;;5032266;28;20752;-73
2023/02/05 14:47:21;;;;;;;21.03;4.90;;;;;;;;;;5031098;28;20184;-73
2023/02/05 14:49:48;;;;;;;26.47;6.57;;;;;;;;;;5031945;28;20415;-74
2023/02/05 14:52:27;;;;;;;24.90;5.37;;;;;;;;;;5031804;28;20416;-73
2023/02/05 14:54:58;;;;;;;21.03;5.20;;;;;;;;;;5032065;28;20473;-73
2023/02/05 14:57:27;;;;;;;18.07;5.30;;;;;;;;;;5030678;28;20423;-73